Time,TemperatureF,DewpointF,PressureIn,WindDirection,WindDirectionDegrees,WindSpeedMPH,WindSpeedGustMPH,Humidity,HourlyPrecipIn,Conditions,Clouds,dailyrainin,SoftwareType,DateUTC
2013-08-29 00:01:00,70.0,68.8,31.01,SE,145,0.0,0.0,96,0.00,,---,0.00,VWS V14.01,2013-08-29 04:01:00,
2013-08-29 00:06:00,69.8,68.6,31.01,SE,145,0.0,0.0,96,0.00,,---,0.00,VWS V14.01,2013-08-29 04:06:00,
2013-08-29 00:11:00,69.8,68.6,31.01,SE,145,0.0,2.7,96,0.00,,---,0.00,VWS V14.01,2013-08-29 04:11:00,
2013-08-29 00:16:00,69.6,68.7,31.01,SE,145,0.0,0.0,97,0.00,,---,0.00,VWS V14.01,2013-08-29 04:16:00,
2013-08-29 00:21:00,69.6,69.0,31.01,East,82,0.0,2.7,98,0.00,,---,0.00,VWS V14.01,2013-08-29 04:21:00,
2013-08-29 00:26:00,69.8,68.9,31.01,East,92,0.0,0.0,97,0.00,,---,0.00,VWS V14.01,2013-08-29 04:26:00,
2013-08-29 00:31:00,69.4,68.8,31.01,East,92,2.7,2.7,98,0.00,,---,0.00,VWS V14.01,2013-08-29 04:31:00,
2013-08-29 00:36:00,69.4,68.8,31.01,East,92,0.0,0.0,98,0.00,,---,0.00,VWS V14.01,2013-08-29 04:36:00,
2013-08-29 00:41:00,69.3,68.7,31.01,East,97,0.0,0.0,98,0.00,,---,0.00,VWS V14.01,2013-08-29 04:41:00,
2013-08-29 00:46:00,69.3,68.7,31.01,NNE,25,0.0,0.0,98,0.00,,---,0.00,VWS V14.01,2013-08-29 04:46:00,
2013-08-29 00:51:00,69.1,68.5,31.01,NNE,25,0.0,0.0,98,0.00,,---,0.00,VWS V14.01,2013-08-29 04:51:00,
2013-08-29 00:56:00,69.1,68.5,31.01,ESE,113,3.1,3.1,98,0.00,,---,0.00,VWS V14.01,2013-08-29 04:56:00,
2013-08-29 01:01:00,69.1,68.5,31.01,ESE,120,0.0,2.7,98,0.00,,---,0.00,VWS V14.01,2013-08-29 05:01:00,
2013-08-29 01:06:00,69.1,68.5,31.01,ESE,120,2.2,2.2,98,0.00,,---,0.00,VWS V14.01,2013-08-29 05:06:00,
2013-08-29 01:11:00,69.1,68.5,31.01,ESE,120,0.0,2.7,98,0.00,,---,0.00,VWS V14.01,2013-08-29 05:11:00,
2013-08-29 01:16:00,68.9,68.3,31.01,ESE,117,0.0,0.0,98,0.00,,---,0.00,VWS V14.01,2013-08-29 05:16:00,
2013-08-29 01:21:00,68.9,68.3,31.01,ESE,117,3.6,3.6,98,0.00,,---,0.00,VWS V14.01,2013-08-29 05:21:00,
2013-08-29 01:26:00,68.9,68.3,31.01,SE,126,2.2,2.7,98,0.00,,---,0.00,VWS V14.01,2013-08-29 05:26:00,
2013-08-29 01:31:00,68.9,68.3,31.01,SE,126,0.0,0.0,98,0.00,,---,0.00,VWS V14.01,2013-08-29 05:31:00,
2013-08-29 01:36:00,68.9,68.3,31.01,SE,126,0.0,0.0,98,0.00,,---,0.00,VWS V14.01,2013-08-29 05:36:00,
2013-08-29 01:41:00,68.7,68.1,31.01,SE,126,2.7,2.7,98,0.00,,---,0.00,VWS V14.01,2013-08-29 05:41:00,
2013-08-29 01:46:00,68.7,68.1,31.01,SE,127,0.0,0.0,98,0.00,,---,0.00,VWS V14.01,2013-08-29 05:46:00,
2013-08-29 01:51:00,68.7,68.1,31.01,SE,126,0.0,0.0,98,0.00,,---,0.00,VWS V14.01,2013-08-29 05:51:00,
2013-08-29 01:56:00,68.5,68.0,31.01,SE,127,0.0,0.0,98,0.00,,---,0.00,VWS V14.01,2013-08-29 05:56:00,
2013-08-29 02:01:00,68.7,68.1,31.01,SSE,151,2.2,2.7,98,0.00,,---,0.00,VWS V14.01,2013-08-29 06:01:00,
2013-08-29 02:06:00,68.7,68.1,31.01,SSE,149,4.0,4.0,98,0.00,,---,0.00,VWS V14.01,2013-08-29 06:06:00,
2013-08-29 02:11:00,68.7,68.1,31.01,East,99,0.0,0.0,98,0.00,,---,0.00,VWS V14.01,2013-08-29 06:11:00,
2013-08-29 02:16:00,68.7,68.1,31.01,East,99,0.0,0.0,98,0.00,,---,0.00,VWS V14.01,2013-08-29 06:16:00,
2013-08-29 02:21:00,68.5,68.0,31.01,East,99,0.0,0.0,98,0.00,,---,0.00,VWS V14.01,2013-08-29 06:21:00,
2013-08-29 02:26:00,68.5,68.0,31.01,East,94,4.0,4.0,98,0.00,,---,0.00,VWS V14.01,2013-08-29 06:26:00,
2013-08-29 02:31:00,68.5,68.0,31.01,East,94,0.0,0.0,98,0.00,,---,0.00,VWS V14.01,2013-08-29 06:31:00,
2013-08-29 02:36:00,68.5,68.0,31.01,East,94,0.0,0.0,98,0.00,,---,0.00,VWS V14.01,2013-08-29 06:36:00,
2013-08-29 02:41:00,68.5,68.0,31.01,East,94,0.0,0.0,98,0.00,,---,0.00,VWS V14.01,2013-08-29 06:41:00,
2013-08-29 02:46:00,68.4,67.8,31.01,East,94,0.0,0.0,98,0.00,,---,0.00,VWS V14.01,2013-08-29 06:46:00,
2013-08-29 02:51:00,68.4,67.8,31.01,East,94,0.0,0.0,98,0.00,,---,0.00,VWS V14.01,2013-08-29 06:51:00,
2013-08-29 02:56:00,68.4,67.8,31.01,East,94,0.0,0.0,98,0.00,,---,0.00,VWS V14.01,2013-08-29 06:56:00,
2013-08-29 03:01:00,68.2,67.6,31.01,ENE,74,5.4,5.4,98,0.00,,---,0.00,VWS V14.01,2013-08-29 07:01:00,
2013-08-29 03:06:00,68.4,67.8,31.01,East,90,0.0,0.0,98,0.00,,---,0.00,VWS V14.01,2013-08-29 07:06:00,
2013-08-29 03:11:00,68.2,67.6,31.01,East,90,0.0,0.0,98,0.00,,---,0.00,VWS V14.01,2013-08-29 07:11:00,
2013-08-29 03:16:00,68.2,67.6,31.01,East,90,0.0,0.0,98,0.00,,---,0.00,VWS V14.01,2013-08-29 07:16:00,
2013-08-29 03:21:00,68.0,67.4,31.01,East,92,0.0,0.0,98,0.00,,---,0.00,VWS V14.01,2013-08-29 07:21:00,
2013-08-29 03:26:00,68.0,67.4,31.01,East,92,2.7,2.7,98,0.00,,---,0.00,VWS V14.01,2013-08-29 07:26:00,
2013-08-29 03:31:00,68.2,67.6,31.01,SE,126,3.1,3.6,98,0.00,,---,0.00,VWS V14.01,2013-08-29 07:31:00,
2013-08-29 03:36:00,68.2,67.6,31.01,SE,126,0.0,0.0,98,0.00,,---,0.00,VWS V14.01,2013-08-29 07:36:00,
2013-08-29 03:41:00,68.0,67.4,31.01,SE,135,0.0,0.0,98,0.00,,---,0.00,VWS V14.01,2013-08-29 07:41:00,
2013-08-29 03:46:00,68.0,67.4,31.01,South,185,0.0,0.0,98,0.00,,---,0.00,VWS V14.01,2013-08-29 07:46:00,
2013-08-29 03:51:00,68.0,67.4,31.01,SE,129,3.6,5.8,98,0.00,,---,0.00,VWS V14.01,2013-08-29 07:51:00,
2013-08-29 03:56:00,68.4,67.8,31.01,SE,128,2.7,3.6,98,0.00,,---,0.00,VWS V14.01,2013-08-29 07:56:00,
2013-08-29 04:01:00,68.5,68.0,31.01,SE,136,0.0,0.0,98,0.00,,---,0.00,VWS V14.01,2013-08-29 08:01:00,
2013-08-29 04:06:00,68.7,68.1,31.01,SE,136,3.1,3.1,98,0.00,,---,0.00,VWS V14.01,2013-08-29 08:06:00,
2013-08-29 04:11:00,69.1,68.5,31.01,East,98,0.0,0.0,98,0.00,,---,0.00,VWS V14.01,2013-08-29 08:11:00,
2013-08-29 04:16:00,69.1,68.5,31.01,East,98,3.1,3.1,98,0.00,,---,0.00,VWS V14.01,2013-08-29 08:16:00,
2013-08-29 04:21:00,69.3,68.7,31.01,ESE,111,0.0,0.0,98,0.00,,---,0.00,VWS V14.01,2013-08-29 08:21:00,
2013-08-29 04:26:00,69.1,68.5,31.01,ESE,111,3.1,3.1,98,0.00,,---,0.00,VWS V14.01,2013-08-29 08:26:00,
2013-08-29 04:31:00,69.3,68.7,31.01,ESE,111,2.7,2.7,98,0.00,,---,0.00,VWS V14.01,2013-08-29 08:31:00,
2013-08-29 04:36:00,69.4,68.8,31.01,ESE,120,2.7,5.4,98,0.00,,---,0.00,VWS V14.01,2013-08-29 08:36:00,
2013-08-29 04:41:00,69.6,69.0,31.01,ESE,116,5.4,5.4,98,0.00,,---,0.00,VWS V14.01,2013-08-29 08:41:00,
2013-08-29 04:46:00,70.0,69.4,31.01,ESE,103,0.0,4.0,98,0.00,,---,0.00,VWS V14.01,2013-08-29 08:46:00,
2013-08-29 04:51:00,70.0,69.4,31.01,ESE,103,0.0,4.0,98,0.00,,---,0.00,VWS V14.01,2013-08-29 08:51:00,
2013-08-29 04:56:00,70.2,69.6,31.01,East,87,2.7,2.7,98,0.00,,---,0.00,VWS V14.01,2013-08-29 08:56:00,
2013-08-29 05:01:00,70.2,69.6,31.01,East,87,2.7,2.7,98,0.00,,---,0.00,VWS V14.01,2013-08-29 09:01:00,
2013-08-29 05:06:00,70.3,69.8,31.01,East,87,3.6,3.6,98,0.00,,---,0.00,VWS V14.01,2013-08-29 09:06:00,
2013-08-29 05:11:00,70.3,69.8,31.01,East,87,2.2,2.2,98,0.00,,---,0.00,VWS V14.01,2013-08-29 09:11:00,
2013-08-29 05:16:00,70.3,69.8,31.01,East,87,2.7,2.7,98,0.00,,---,0.00,VWS V14.01,2013-08-29 09:16:00,
2013-08-29 05:21:00,70.3,69.8,31.01,East,87,0.0,2.2,98,0.00,,---,0.00,VWS V14.01,2013-08-29 09:21:00,
2013-08-29 05:26:00,70.3,69.8,31.01,East,87,2.7,3.1,98,0.00,,---,0.00,VWS V14.01,2013-08-29 09:26:00,
2013-08-29 05:31:00,70.5,69.9,31.01,East,87,2.7,2.7,98,0.00,,---,0.00,VWS V14.01,2013-08-29 09:31:00,
2013-08-29 05:36:00,70.5,69.9,31.01,East,89,0.0,0.0,98,0.00,,---,0.00,VWS V14.01,2013-08-29 09:36:00,
2013-08-29 05:41:00,70.3,69.8,31.01,East,89,2.2,2.7,98,0.00,,---,0.00,VWS V14.01,2013-08-29 09:41:00,
2013-08-29 05:46:00,70.5,69.9,31.01,East,89,3.1,3.1,98,0.00,,---,0.00,VWS V14.01,2013-08-29 09:46:00,
2013-08-29 05:51:00,70.7,70.1,31.01,SE,124,4.0,4.0,98,0.00,,---,0.00,VWS V14.01,2013-08-29 09:51:00,
2013-08-29 05:56:00,70.9,70.0,31.01,East,99,5.4,5.4,97,0.00,,---,0.00,VWS V14.01,2013-08-29 09:56:00,
2013-08-29 06:01:00,70.9,70.0,31.01,East,97,0.0,0.0,97,0.00,,---,0.00,VWS V14.01,2013-08-29 10:01:00,
2013-08-29 06:06:00,70.9,70.0,31.01,East,97,0.0,0.0,97,0.00,,---,0.00,VWS V14.01,2013-08-29 10:06:00,
2013-08-29 06:11:00,70.9,70.0,31.01,East,97,0.0,0.0,97,0.00,,---,0.00,VWS V14.01,2013-08-29 10:11:00,
2013-08-29 06:16:00,70.9,69.7,31.01,ESE,102,0.0,0.0,96,0.00,,---,0.00,VWS V14.01,2013-08-29 10:16:00,
2013-08-29 06:21:00,70.9,70.0,31.01,ESE,102,0.0,0.0,97,0.00,,---,0.00,VWS V14.01,2013-08-29 10:21:00,
2013-08-29 06:26:00,70.5,69.6,31.01,ESE,102,0.0,0.0,97,0.00,,---,0.00,VWS V14.01,2013-08-29 10:26:00,
2013-08-29 06:31:00,70.3,69.4,31.01,ESE,117,0.0,0.0,97,0.00,,---,0.00,VWS V14.01,2013-08-29 10:31:00,
2013-08-29 06:36:00,70.3,69.8,31.01,ESE,106,0.0,0.0,98,0.00,,---,0.00,VWS V14.01,2013-08-29 10:36:00,
2013-08-29 06:41:00,70.2,69.6,31.01,ESE,106,0.0,0.0,98,0.00,,---,0.00,VWS V14.01,2013-08-29 10:41:00,
2013-08-29 06:46:00,70.0,69.4,31.01,ESE,106,2.2,2.2,98,0.00,,---,0.00,VWS V14.01,2013-08-29 10:46:00,
2013-08-29 06:51:00,69.8,69.2,31.01,ESE,106,2.7,2.7,98,0.00,,---,0.00,VWS V14.01,2013-08-29 10:51:00,
2013-08-29 06:56:00,69.6,69.0,31.01,ESE,106,0.0,0.0,98,0.00,,---,0.00,VWS V14.01,2013-08-29 10:56:00,
2013-08-29 07:01:00,69.6,69.0,31.01,ESE,106,0.0,0.0,98,0.00,,---,0.00,VWS V14.01,2013-08-29 11:01:00,
2013-08-29 07:06:00,69.6,69.0,31.01,ESE,106,2.7,4.0,98,0.00,,---,0.00,VWS V14.01,2013-08-29 11:06:00,
2013-08-29 07:11:00,69.8,69.2,31.01,ESE,108,0.0,3.1,98,0.00,,---,0.00,VWS V14.01,2013-08-29 11:11:00,
2013-08-29 07:16:00,69.6,69.0,31.01,ESE,108,0.0,0.0,98,0.00,,---,0.00,VWS V14.01,2013-08-29 11:16:00,
2013-08-29 07:21:00,69.6,69.0,31.01,ESE,108,0.0,0.0,98,0.00,,---,0.00,VWS V14.01,2013-08-29 11:21:00,
2013-08-29 07:26:00,69.8,69.2,31.01,ESE,108,0.0,0.0,98,0.00,,---,0.00,VWS V14.01,2013-08-29 11:26:00,
2013-08-29 07:31:00,70.0,69.4,31.01,ESE,108,2.7,2.7,98,0.00,,---,0.00,VWS V14.01,2013-08-29 11:31:00,
2013-08-29 07:36:00,70.2,69.6,31.01,ESE,108,0.0,0.0,98,0.00,,---,0.00,VWS V14.01,2013-08-29 11:36:00,
2013-08-29 07:41:00,70.2,69.6,31.01,ESE,108,0.0,0.0,98,0.00,,---,0.00,VWS V14.01,2013-08-29 11:41:00,
2013-08-29 07:46:00,70.2,69.6,31.01,ESE,108,2.2,2.2,98,0.00,,---,0.00,VWS V14.01,2013-08-29 11:46:00,
2013-08-29 07:51:00,70.3,69.8,31.01,ESE,108,0.0,0.0,98,0.00,,---,0.00,VWS V14.01,2013-08-29 11:51:00,
2013-08-29 07:56:00,70.7,70.1,31.01,ESE,108,0.0,0.0,98,0.00,,---,0.00,VWS V14.01,2013-08-29 11:56:00,
2013-08-29 08:01:00,70.9,70.3,31.01,ESE,108,0.0,0.0,98,0.00,,---,0.00,VWS V14.01,2013-08-29 12:01:00,
2013-08-29 08:06:00,71.2,70.7,31.01,ESE,108,0.0,0.0,98,0.00,,---,0.00,VWS V14.01,2013-08-29 12:06:00,
2013-08-29 08:11:00,71.4,70.8,31.01,ESE,108,0.0,0.0,98,0.00,,---,0.00,VWS V14.01,2013-08-29 12:11:00,
2013-08-29 08:16:00,71.6,71.0,31.01,ESE,108,0.0,0.0,98,0.00,,---,0.00,VWS V14.01,2013-08-29 12:16:00,
2013-08-29 08:21:00,72.0,71.4,31.01,ESE,108,0.0,0.0,98,0.00,,---,0.00,VWS V14.01,2013-08-29 12:21:00,
2013-08-29 08:26:00,72.0,71.4,31.01,ESE,108,0.0,2.2,98,0.00,,---,0.00,VWS V14.01,2013-08-29 12:26:00,
2013-08-29 08:31:00,72.0,71.4,31.01,ESE,108,0.0,0.0,98,0.00,,---,0.00,VWS V14.01,2013-08-29 12:31:00,
2013-08-29 08:36:00,72.0,71.4,31.01,ESE,108,3.1,3.1,98,0.00,,---,0.00,VWS V14.01,2013-08-29 12:36:00,
2013-08-29 08:41:00,72.1,71.6,31.01,ESE,108,0.0,0.0,98,0.00,,---,0.00,VWS V14.01,2013-08-29 12:41:00,
2013-08-29 08:46:00,72.7,72.1,31.01,ESE,108,0.0,2.7,98,0.00,,---,0.00,VWS V14.01,2013-08-29 12:46:00,
2013-08-29 08:51:00,73.2,72.6,31.01,ESE,108,0.0,0.0,98,0.00,,---,0.00,VWS V14.01,2013-08-29 12:51:00,
2013-08-29 08:56:00,73.6,72.7,31.01,ESE,108,0.0,0.0,97,0.00,,---,0.00,VWS V14.01,2013-08-29 12:56:00,
2013-08-29 09:01:00,73.9,72.4,31.01,ESE,108,0.0,0.0,95,0.00,,---,0.00,VWS V14.01,2013-08-29 13:01:00,
2013-08-29 09:06:00,74.3,72.8,31.01,ESE,108,0.0,0.0,95,0.00,,---,0.00,VWS V14.01,2013-08-29 13:06:00,
2013-08-29 09:11:00,74.5,72.6,31.01,ESE,108,3.6,3.6,94,0.00,,---,0.00,VWS V14.01,2013-08-29 13:11:00,
2013-08-29 09:16:00,74.7,72.8,31.01,ESE,108,0.0,0.0,94,0.00,,---,0.00,VWS V14.01,2013-08-29 13:16:00,
2013-08-29 09:21:00,74.8,72.7,31.01,ESE,108,0.0,2.2,93,0.00,,---,0.00,VWS V14.01,2013-08-29 13:21:00,
2013-08-29 09:26:00,75.6,72.4,31.01,ESE,108,0.0,2.7,90,0.00,,---,0.00,VWS V14.01,2013-08-29 13:26:00,
2013-08-29 09:31:00,76.1,73.0,31.01,ESE,108,0.0,2.7,90,0.00,,---,0.00,VWS V14.01,2013-08-29 13:31:00,
2013-08-29 09:36:00,76.6,73.2,31.01,ESE,108,0.0,0.0,89,0.00,,---,0.00,VWS V14.01,2013-08-29 13:36:00,
2013-08-29 09:41:00,77.0,72.8,31.01,ESE,108,2.2,2.2,87,0.00,,---,0.00,VWS V14.01,2013-08-29 13:41:00,
2013-08-29 09:46:00,77.5,72.7,31.01,ESE,108,4.0,4.0,85,0.00,,---,0.00,VWS V14.01,2013-08-29 13:46:00,
2013-08-29 09:51:00,77.9,73.0,31.01,ESE,108,0.0,0.0,85,0.00,,---,0.00,VWS V14.01,2013-08-29 13:51:00,
2013-08-29 09:56:00,78.6,73.0,31.01,ESE,106,2.7,3.1,83,0.00,,---,0.00,VWS V14.01,2013-08-29 13:56:00,
2013-08-29 10:01:00,78.8,73.2,31.01,ENE,75,2.2,4.0,83,0.00,,---,0.00,VWS V14.01,2013-08-29 14:01:00,
2013-08-29 10:06:00,79.3,73.0,31.01,ENE,75,0.0,0.0,81,0.00,,---,0.00,VWS V14.01,2013-08-29 14:06:00,
2013-08-29 10:11:00,79.5,72.4,31.01,ENE,75,0.0,0.0,79,0.00,,---,0.00,VWS V14.01,2013-08-29 14:11:00,
2013-08-29 10:16:00,79.5,72.8,31.01,ENE,75,0.0,0.0,80,0.00,,---,0.00,VWS V14.01,2013-08-29 14:16:00,
2013-08-29 10:21:00,79.5,72.4,31.01,ENE,75,0.0,2.7,79,0.00,,---,0.00,VWS V14.01,2013-08-29 14:21:00,
2013-08-29 10:26:00,79.9,72.4,31.01,NE,56,0.0,2.7,78,0.00,,---,0.00,VWS V14.01,2013-08-29 14:26:00,
2013-08-29 10:31:00,80.2,73.1,31.01,NE,56,2.7,2.7,79,0.00,,---,0.00,VWS V14.01,2013-08-29 14:31:00,
2013-08-29 10:36:00,80.8,72.5,31.01,ENE,61,2.7,2.7,76,0.00,,---,0.00,VWS V14.01,2013-08-29 14:36:00,
2013-08-29 10:41:00,81.0,72.7,31.01,ENE,61,0.0,0.0,76,0.00,,---,0.00,VWS V14.01,2013-08-29 14:41:00,
2013-08-29 10:46:00,80.8,72.9,31.01,ENE,61,0.0,0.0,77,0.00,,---,0.00,VWS V14.01,2013-08-29 14:46:00,
2013-08-29 10:51:00,81.3,73.4,31.01,ENE,61,2.7,3.1,77,0.00,,---,0.00,VWS V14.01,2013-08-29 14:51:00,
2013-08-29 10:56:00,81.7,72.6,31.01,East,87,0.0,3.6,74,0.00,,---,0.00,VWS V14.01,2013-08-29 14:56:00,
2013-08-29 11:01:00,82.4,72.9,31.01,East,87,2.7,2.7,73,0.00,,---,0.00,VWS V14.01,2013-08-29 15:01:00,
2013-08-29 11:06:00,82.8,72.8,31.01,East,92,0.0,2.2,72,0.00,,---,0.00,VWS V14.01,2013-08-29 15:06:00,
2013-08-29 11:11:00,83.7,73.7,31.01,North,3,0.0,0.0,72,0.00,,---,0.00,VWS V14.01,2013-08-29 15:11:00,
2013-08-29 11:16:00,84.0,73.2,31.01,North,3,3.1,3.1,70,0.00,,---,0.00,VWS V14.01,2013-08-29 15:16:00,
2013-08-29 11:21:00,83.5,71.8,31.01,SE,144,0.0,2.7,68,0.00,,---,0.00,VWS V14.01,2013-08-29 15:21:00,
2013-08-29 11:26:00,83.3,72.5,31.01,SE,128,4.9,4.9,70,0.00,,---,0.00,VWS V14.01,2013-08-29 15:26:00,
2013-08-29 11:31:00,82.6,71.8,31.01,SE,128,0.0,0.0,70,0.00,,---,0.00,VWS V14.01,2013-08-29 15:31:00,
2013-08-29 11:36:00,82.2,72.3,31.01,SE,127,0.0,0.0,72,0.00,,---,0.00,VWS V14.01,2013-08-29 15:36:00,
2013-08-29 11:41:00,82.2,72.7,31.01,SE,125,3.6,3.6,73,0.00,,---,0.00,VWS V14.01,2013-08-29 15:41:00,
2013-08-29 11:46:00,82.2,72.7,31.01,SE,135,0.0,0.0,73,0.00,,---,0.00,VWS V14.01,2013-08-29 15:46:00,
2013-08-29 11:51:00,81.7,72.2,31.01,SSE,168,2.2,2.7,73,0.00,,---,0.00,VWS V14.01,2013-08-29 15:51:00,
2013-08-29 11:56:00,81.7,71.8,31.01,SSE,165,0.0,0.0,72,0.00,,---,0.00,VWS V14.01,2013-08-29 15:56:00,
2013-08-29 12:01:00,81.7,71.4,31.01,East,88,2.7,2.7,71,0.00,,---,0.00,VWS V14.01,2013-08-29 16:01:00,
2013-08-29 12:06:00,82.4,72.5,31.01,SE,129,2.2,2.2,72,0.00,,---,0.00,VWS V14.01,2013-08-29 16:06:00,
2013-08-29 12:11:00,82.9,72.6,31.01,ESE,113,3.6,4.9,71,0.00,,---,0.00,VWS V14.01,2013-08-29 16:11:00,
2013-08-29 12:16:00,83.3,73.3,31.01,SW,233,0.0,2.7,72,0.00,,---,0.00,VWS V14.01,2013-08-29 16:16:00,
2013-08-29 12:21:00,83.7,72.0,31.01,SW,218,2.2,2.2,68,0.00,,---,0.00,VWS V14.01,2013-08-29 16:21:00,
2013-08-29 12:26:00,83.8,72.2,31.01,ESE,111,4.9,5.4,68,0.00,,---,0.00,VWS V14.01,2013-08-29 16:26:00,
2013-08-29 12:31:00,84.7,72.1,31.01,SE,145,3.1,6.3,66,0.00,,---,0.00,VWS V14.01,2013-08-29 16:31:00,
2013-08-29 12:36:00,85.3,72.6,31.01,ENE,77,5.4,5.4,66,0.00,,---,0.00,VWS V14.01,2013-08-29 16:36:00,
2013-08-29 12:41:00,85.5,72.8,31.01,ESE,108,4.0,4.0,66,0.00,,---,0.00,VWS V14.01,2013-08-29 16:41:00,
2013-08-29 12:46:00,85.6,73.0,31.01,East,89,3.1,3.1,66,0.00,,---,0.00,VWS V14.01,2013-08-29 16:46:00,
2013-08-29 12:51:00,84.4,71.3,31.01,ESE,108,3.1,4.0,65,0.00,,---,0.00,VWS V14.01,2013-08-29 16:51:00,
2013-08-29 12:56:00,84.4,72.2,31.01,SE,132,3.1,4.0,67,0.00,,---,0.00,VWS V14.01,2013-08-29 16:56:00,
2013-08-29 13:01:00,83.8,71.7,31.01,ESE,109,3.6,3.6,67,0.00,,---,0.00,VWS V14.01,2013-08-29 17:01:00,
2013-08-29 13:06:00,84.2,72.5,31.01,South,173,0.0,0.0,68,0.00,,---,0.00,VWS V14.01,2013-08-29 17:06:00,
2013-08-29 13:11:00,84.6,72.8,31.01,SE,128,3.1,3.6,68,0.00,,---,0.00,VWS V14.01,2013-08-29 17:11:00,
2013-08-29 13:16:00,84.9,72.3,31.01,ENE,69,4.0,4.0,66,0.00,,---,0.00,VWS V14.01,2013-08-29 17:16:00,
2013-08-29 13:21:00,84.6,72.4,31.01,SSE,162,2.2,2.2,67,0.00,,---,0.00,VWS V14.01,2013-08-29 17:21:00,
2013-08-29 13:26:00,84.7,71.7,31.01,SE,136,2.2,3.6,65,0.00,,---,0.00,VWS V14.01,2013-08-29 17:26:00,
2013-08-29 13:31:00,85.5,72.8,31.01,ESE,116,2.2,2.7,66,0.00,,---,0.00,VWS V14.01,2013-08-29 17:31:00,
2013-08-29 13:36:00,86.2,72.6,31.01,NE,55,3.6,3.6,64,0.00,,---,0.00,VWS V14.01,2013-08-29 17:36:00,
2013-08-29 13:41:00,86.9,72.3,31.01,WSW,243,3.1,3.1,62,0.00,,---,0.00,VWS V14.01,2013-08-29 17:41:00,
2013-08-29 13:46:00,86.0,71.5,31.01,SW,217,3.6,3.6,62,0.00,,---,0.00,VWS V14.01,2013-08-29 17:46:00,
2013-08-29 13:51:00,85.8,72.2,31.01,East,99,3.6,3.6,64,0.00,,---,0.00,VWS V14.01,2013-08-29 17:51:00,
2013-08-29 13:56:00,86.0,72.4,31.01,WNW,301,3.6,3.6,64,0.00,,---,0.00,VWS V14.01,2013-08-29 17:56:00,
2013-08-29 14:01:00,86.4,72.3,31.01,SW,227,2.7,2.7,63,0.00,,---,0.00,VWS V14.01,2013-08-29 18:01:00,
2013-08-29 14:06:00,86.5,72.0,31.01,SSW,208,2.7,2.7,62,0.00,,---,0.00,VWS V14.01,2013-08-29 18:06:00,
2013-08-29 14:11:00,87.6,73.5,31.01,SSW,204,2.2,3.6,63,0.00,,---,0.00,VWS V14.01,2013-08-29 18:11:00,
2013-08-29 14:16:00,87.8,72.7,31.01,West,268,0.0,0.0,61,0.00,,---,0.00,VWS V14.01,2013-08-29 18:16:00,
2013-08-29 14:21:00,87.3,72.2,31.01,West,268,3.1,3.1,61,0.00,,---,0.00,VWS V14.01,2013-08-29 18:21:00,
2013-08-29 14:26:00,87.6,73.0,31.01,ESE,110,4.0,4.0,62,0.00,,---,0.00,VWS V14.01,2013-08-29 18:26:00,
2013-08-29 14:31:00,87.4,72.8,31.01,East,93,3.6,4.9,62,0.00,,---,0.00,VWS V14.01,2013-08-29 18:31:00,
2013-08-29 14:36:00,87.4,72.8,31.01,ENE,64,2.7,5.4,62,0.00,,---,0.00,VWS V14.01,2013-08-29 18:36:00,
2013-08-29 14:41:00,87.8,72.7,31.01,ESE,111,0.0,2.2,61,0.00,,---,0.00,VWS V14.01,2013-08-29 18:41:00,
2013-08-29 14:46:00,88.2,72.5,31.01,ESE,106,2.2,2.7,60,0.00,,---,0.00,VWS V14.01,2013-08-29 18:46:00,
2013-08-29 14:51:00,88.5,72.9,31.01,NNE,33,2.7,2.7,60,0.00,,---,0.00,VWS V14.01,2013-08-29 18:51:00,
2013-08-29 14:56:00,87.8,70.7,31.01,ESE,119,4.0,4.0,57,0.00,,---,0.00,VWS V14.01,2013-08-29 18:56:00,
2013-08-29 15:01:00,88.7,72.5,31.01,SW,217,2.7,4.0,59,0.00,,---,0.00,VWS V14.01,2013-08-29 19:01:00,
2013-08-29 15:06:00,88.5,71.3,31.01,NE,55,2.7,3.1,57,0.00,,---,0.00,VWS V14.01,2013-08-29 19:06:00,
2013-08-29 15:11:00,87.6,71.0,31.01,ENE,67,2.7,2.7,58,0.00,,---,0.00,VWS V14.01,2013-08-29 19:11:00,
2013-08-29 15:16:00,87.6,71.5,31.01,SE,129,3.6,3.6,59,0.00,,---,0.00,VWS V14.01,2013-08-29 19:16:00,
2013-08-29 15:21:00,87.6,71.5,31.01,ESE,123,2.7,4.0,59,0.00,,---,0.00,VWS V14.01,2013-08-29 19:21:00,
2013-08-29 15:26:00,87.6,71.5,31.01,East,91,2.7,3.1,59,0.00,,---,0.00,VWS V14.01,2013-08-29 19:26:00,
2013-08-29 15:31:00,87.6,71.5,31.01,East,95,3.6,3.6,59,0.00,,---,0.00,VWS V14.01,2013-08-29 19:31:00,
2013-08-29 15:36:00,87.6,71.0,31.01,ENE,57,2.7,3.6,58,0.00,,---,0.00,VWS V14.01,2013-08-29 19:36:00,
2013-08-29 15:41:00,87.6,72.5,31.01,ESE,119,5.4,5.4,61,0.00,,---,0.00,VWS V14.01,2013-08-29 19:41:00,
2013-08-29 15:46:00,87.6,71.0,31.01,NE,52,2.7,3.6,58,0.00,,---,0.00,VWS V14.01,2013-08-29 19:46:00,
2013-08-29 15:51:00,87.4,70.9,31.01,NNE,32,2.2,2.7,58,0.00,,---,0.00,VWS V14.01,2013-08-29 19:51:00,
2013-08-29 15:56:00,87.4,70.3,31.01,WNW,294,2.7,2.7,57,0.00,,---,0.00,VWS V14.01,2013-08-29 19:56:00,
2013-08-29 16:01:00,87.1,70.0,31.01,East,87,3.6,3.6,57,0.00,,---,0.00,VWS V14.01,2013-08-29 20:01:00,
2013-08-29 16:06:00,87.1,71.0,31.01,WSW,249,2.2,2.2,59,0.00,,---,0.00,VWS V14.01,2013-08-29 20:06:00,
2013-08-29 16:11:00,86.9,69.8,31.01,WSW,248,2.7,5.4,57,0.00,,---,0.00,VWS V14.01,2013-08-29 20:11:00,
2013-08-29 16:16:00,86.5,69.5,31.01,SSE,157,4.0,4.0,57,0.00,,---,0.00,VWS V14.01,2013-08-29 20:16:00,
2013-08-29 16:21:00,86.4,68.8,31.01,ENE,76,8.7,8.7,56,0.00,,---,0.00,VWS V14.01,2013-08-29 20:21:00,
2013-08-29 16:26:00,86.2,68.7,31.01,East,99,2.7,2.7,56,0.00,,---,0.00,VWS V14.01,2013-08-29 20:26:00,
2013-08-29 16:31:00,86.2,69.2,31.01,East,96,2.7,4.9,57,0.00,,---,0.00,VWS V14.01,2013-08-29 20:31:00,
2013-08-29 16:36:00,86.0,69.0,31.01,SSE,152,6.3,6.3,57,0.00,,---,0.00,VWS V14.01,2013-08-29 20:36:00,
2013-08-29 16:41:00,85.6,68.7,31.01,ESE,122,3.1,3.1,57,0.00,,---,0.00,VWS V14.01,2013-08-29 20:41:00,
2013-08-29 16:46:00,85.5,69.0,31.01,ESE,120,5.4,6.3,58,0.00,,---,0.00,VWS V14.01,2013-08-29 20:46:00,
2013-08-29 16:51:00,85.3,69.8,31.01,East,93,0.0,0.0,60,0.00,,---,0.00,VWS V14.01,2013-08-29 20:51:00,
2013-08-29 16:56:00,84.9,70.0,31.01,WSW,258,0.0,2.2,61,0.00,,---,0.00,VWS V14.01,2013-08-29 20:56:00,
2013-08-29 17:01:00,84.7,69.3,31.01,ESE,102,4.0,6.3,60,0.00,,---,0.00,VWS V14.01,2013-08-29 21:01:00,
2013-08-29 17:06:00,84.4,69.9,31.01,East,96,2.2,2.7,62,0.00,,---,0.00,VWS V14.01,2013-08-29 21:06:00,
2013-08-29 17:11:00,84.2,70.2,31.01,ENE,78,4.0,4.0,63,0.00,,---,0.00,VWS V14.01,2013-08-29 21:11:00,
2013-08-29 17:16:00,83.8,69.9,31.01,East,89,4.0,5.8,63,0.00,,---,0.00,VWS V14.01,2013-08-29 21:16:00,
2013-08-29 17:21:00,83.7,69.3,31.01,ESE,114,0.0,2.2,62,0.00,,---,0.00,VWS V14.01,2013-08-29 21:21:00,
2013-08-29 17:26:00,83.5,69.6,31.01,ESE,119,0.0,0.0,63,0.00,,---,0.00,VWS V14.01,2013-08-29 21:26:00,
2013-08-29 17:31:00,83.3,69.9,31.01,ESE,119,0.0,0.0,64,0.00,,---,0.00,VWS V14.01,2013-08-29 21:31:00,
2013-08-29 17:36:00,82.9,69.5,31.01,East,100,0.0,3.6,64,0.00,,---,0.00,VWS V14.01,2013-08-29 21:36:00,
2013-08-29 17:41:00,82.8,69.8,31.01,East,101,2.7,2.7,65,0.00,,---,0.00,VWS V14.01,2013-08-29 21:41:00,
2013-08-29 17:46:00,82.6,69.6,31.01,SSW,202,0.0,0.0,65,0.00,,---,0.00,VWS V14.01,2013-08-29 21:46:00,
2013-08-29 17:51:00,82.2,68.8,31.01,East,95,4.9,5.4,64,0.00,,---,0.00,VWS V14.01,2013-08-29 21:51:00,
2013-08-29 17:56:00,81.9,68.5,31.01,ESE,120,4.0,4.0,64,0.00,,---,0.00,VWS V14.01,2013-08-29 21:56:00,
2013-08-29 18:01:00,81.5,68.2,31.01,ESE,116,3.6,4.0,64,0.00,,---,0.00,VWS V14.01,2013-08-29 22:01:00,
2013-08-29 18:06:00,81.3,68.9,31.01,ESE,116,0.0,0.0,66,0.00,,---,0.00,VWS V14.01,2013-08-29 22:06:00,
2013-08-29 18:11:00,81.0,69.4,31.01,ESE,116,0.0,0.0,68,0.00,,---,0.00,VWS V14.01,2013-08-29 22:11:00,
2013-08-29 18:16:00,80.8,69.2,31.01,ESE,116,0.0,0.0,68,0.00,,---,0.00,VWS V14.01,2013-08-29 22:16:00,
2013-08-29 18:21:00,80.6,69.5,31.01,ESE,116,0.0,0.0,69,0.00,,---,0.00,VWS V14.01,2013-08-29 22:21:00,
2013-08-29 18:26:00,80.4,69.8,31.01,ESE,116,4.0,4.0,70,0.00,,---,0.00,VWS V14.01,2013-08-29 22:26:00,
2013-08-29 18:31:00,80.1,69.8,31.01,ESE,116,0.0,0.0,71,0.00,,---,0.00,VWS V14.01,2013-08-29 22:31:00,
2013-08-29 18:36:00,79.5,70.1,31.01,ESE,116,0.0,0.0,73,0.00,,---,0.00,VWS V14.01,2013-08-29 22:36:00,
2013-08-29 18:41:00,79.0,70.0,31.01,ESE,116,0.0,0.0,74,0.00,,---,0.00,VWS V14.01,2013-08-29 22:41:00,
2013-08-29 18:46:00,78.6,70.0,31.01,ESE,116,0.0,0.0,75,0.00,,---,0.00,VWS V14.01,2013-08-29 22:46:00,
2013-08-29 18:51:00,78.1,69.9,31.01,ESE,116,0.0,0.0,76,0.00,,---,0.00,VWS V14.01,2013-08-29 22:51:00,
2013-08-29 18:56:00,77.5,69.8,31.01,ESE,116,0.0,0.0,77,0.00,,---,0.00,VWS V14.01,2013-08-29 22:56:00,
2013-08-29 19:01:00,77.2,69.4,31.01,ESE,116,0.0,0.0,77,0.00,,---,0.00,VWS V14.01,2013-08-29 23:01:00,
2013-08-29 19:06:00,76.8,69.4,31.01,ESE,116,0.0,0.0,78,0.00,,---,0.00,VWS V14.01,2013-08-29 23:06:00,
2013-08-29 19:11:00,76.5,69.5,31.01,ESE,116,0.0,0.0,79,0.00,,---,0.00,VWS V14.01,2013-08-29 23:11:00,
2013-08-29 19:16:00,76.3,69.7,31.01,ESE,116,2.7,2.7,80,0.00,,---,0.00,VWS V14.01,2013-08-29 23:16:00,
2013-08-29 19:21:00,75.9,69.3,31.01,South,177,2.2,2.2,80,0.00,,---,0.00,VWS V14.01,2013-08-29 23:21:00,
2013-08-29 19:26:00,75.7,69.1,31.01,South,177,0.0,0.0,80,0.00,,---,0.00,VWS V14.01,2013-08-29 23:26:00,
2013-08-29 19:31:00,75.6,69.0,31.01,South,177,0.0,0.0,80,0.00,,---,0.00,VWS V14.01,2013-08-29 23:31:00,
2013-08-29 19:36:00,75.4,68.8,31.01,South,177,0.0,0.0,80,0.00,,---,0.00,VWS V14.01,2013-08-29 23:36:00,
2013-08-29 19:41:00,75.2,68.6,31.01,South,177,0.0,2.2,80,0.00,,---,0.00,VWS V14.01,2013-08-29 23:41:00,
2013-08-29 19:46:00,75.0,69.2,31.01,South,177,0.0,0.0,82,0.00,,---,0.00,VWS V14.01,2013-08-29 23:46:00,
2013-08-29 19:51:00,74.8,69.0,31.01,South,177,0.0,0.0,82,0.00,,---,0.00,VWS V14.01,2013-08-29 23:51:00,
2013-08-29 19:56:00,74.7,68.8,31.01,South,177,0.0,0.0,82,0.00,,---,0.00,VWS V14.01,2013-08-29 23:56:00,
2013-08-29 20:01:00,74.5,68.6,31.01,South,177,2.7,2.7,82,0.00,,---,0.00,VWS V14.01,2013-08-30 00:01:00,
2013-08-29 20:06:00,74.5,69.0,31.01,South,177,0.0,0.0,83,0.00,,---,0.00,VWS V14.01,2013-08-30 00:06:00,
2013-08-29 20:11:00,74.3,68.8,31.01,South,177,0.0,0.0,83,0.00,,---,0.00,VWS V14.01,2013-08-30 00:11:00,
2013-08-29 20:16:00,74.3,69.2,31.01,South,177,0.0,0.0,84,0.00,,---,0.00,VWS V14.01,2013-08-30 00:16:00,
2013-08-29 20:21:00,74.3,69.5,31.01,South,177,0.0,0.0,85,0.00,,---,0.00,VWS V14.01,2013-08-30 00:21:00,
2013-08-29 20:26:00,74.3,69.5,31.01,South,177,0.0,2.7,85,0.00,,---,0.00,VWS V14.01,2013-08-30 00:26:00,
2013-08-29 20:31:00,74.3,69.5,31.01,South,177,0.0,0.0,85,0.00,,---,0.00,VWS V14.01,2013-08-30 00:31:00,
2013-08-29 20:36:00,74.3,69.5,31.01,South,177,0.0,0.0,85,0.00,,---,0.00,VWS V14.01,2013-08-30 00:36:00,
2013-08-29 20:41:00,74.3,69.5,31.01,South,177,0.0,0.0,85,0.00,,---,0.00,VWS V14.01,2013-08-30 00:41:00,
2013-08-29 20:46:00,74.3,69.8,31.01,South,177,0.0,0.0,86,0.00,,---,0.00,VWS V14.01,2013-08-30 00:46:00,
2013-08-29 20:51:00,74.1,70.0,31.01,South,177,0.0,0.0,87,0.00,,---,0.00,VWS V14.01,2013-08-30 00:51:00,
2013-08-29 20:56:00,74.1,69.7,31.01,South,177,0.0,0.0,86,0.00,,---,0.00,VWS V14.01,2013-08-30 00:56:00,
2013-08-29 21:01:00,74.1,69.7,31.01,South,177,0.0,0.0,86,0.00,,---,0.00,VWS V14.01,2013-08-30 01:01:00,
2013-08-29 21:06:00,74.1,70.0,31.01,South,177,0.0,0.0,87,0.00,,---,0.00,VWS V14.01,2013-08-30 01:06:00,
2013-08-29 21:11:00,74.1,70.0,31.01,South,177,0.0,0.0,87,0.00,,---,0.00,VWS V14.01,2013-08-30 01:11:00,
2013-08-29 21:16:00,74.1,69.7,31.01,South,176,0.0,0.0,86,0.00,,---,0.00,VWS V14.01,2013-08-30 01:16:00,
2013-08-29 21:21:00,74.1,70.0,31.01,South,177,0.0,0.0,87,0.00,,---,0.00,VWS V14.01,2013-08-30 01:21:00,
2013-08-29 21:26:00,74.1,70.0,31.01,South,177,0.0,0.0,87,0.00,,---,0.00,VWS V14.01,2013-08-30 01:26:00,
2013-08-29 21:31:00,74.1,70.0,31.01,South,177,0.0,0.0,87,0.00,,---,0.00,VWS V14.01,2013-08-30 01:31:00,
2013-08-29 21:36:00,73.9,69.8,31.01,South,177,0.0,0.0,87,0.00,,---,0.00,VWS V14.01,2013-08-30 01:36:00,
2013-08-29 21:41:00,73.9,70.2,31.01,South,177,0.0,0.0,88,0.00,,---,0.00,VWS V14.01,2013-08-30 01:41:00,
2013-08-29 21:46:00,73.8,70.0,31.01,South,176,0.0,0.0,88,0.00,,---,0.00,VWS V14.01,2013-08-30 01:46:00,
2013-08-29 21:51:00,73.8,70.3,31.01,South,177,0.0,0.0,89,0.00,,---,0.00,VWS V14.01,2013-08-30 01:51:00,
2013-08-29 21:56:00,73.8,70.3,31.01,South,177,2.7,2.7,89,0.00,,---,0.00,VWS V14.01,2013-08-30 01:56:00,
2013-08-29 22:01:00,73.9,70.8,31.01,WNW,290,0.0,0.0,90,0.00,,---,0.00,VWS V14.01,2013-08-30 02:01:00,
2013-08-29 22:06:00,73.9,70.8,31.01,ESE,104,2.2,3.1,90,0.00,,---,0.00,VWS V14.01,2013-08-30 02:06:00,
2013-08-29 22:11:00,74.1,71.0,31.01,NE,41,2.7,2.7,90,0.00,,---,0.00,VWS V14.01,2013-08-30 02:11:00,
2013-08-29 22:16:00,74.1,70.7,31.01,NNE,32,0.0,2.7,89,0.00,,---,0.00,VWS V14.01,2013-08-30 02:16:00,
2013-08-29 22:21:00,73.9,70.8,31.01,NNE,32,2.2,2.2,90,0.00,,---,0.00,VWS V14.01,2013-08-30 02:21:00,
2013-08-29 22:26:00,73.8,71.0,31.01,WNW,293,2.2,2.2,91,0.00,,---,0.00,VWS V14.01,2013-08-30 02:26:00,
2013-08-29 22:31:00,73.6,70.8,31.01,WNW,292,2.2,2.2,91,0.00,,---,0.00,VWS V14.01,2013-08-30 02:31:00,
2013-08-29 22:36:00,73.4,70.9,31.01,WNW,292,3.6,4.0,92,0.00,,---,0.00,VWS V14.01,2013-08-30 02:36:00,
2013-08-29 22:41:00,73.6,71.1,31.01,WNW,285,2.7,2.7,92,0.00,,---,0.00,VWS V14.01,2013-08-30 02:41:00,
2013-08-29 22:46:00,73.8,71.3,31.01,West,271,3.1,3.1,92,0.00,,---,0.00,VWS V14.01,2013-08-30 02:46:00,
2013-08-29 22:51:00,73.6,71.1,31.01,West,270,0.0,0.0,92,0.00,,---,0.00,VWS V14.01,2013-08-30 02:51:00,
2013-08-29 22:56:00,73.6,71.1,31.01,West,270,0.0,0.0,92,0.00,,---,0.00,VWS V14.01,2013-08-30 02:56:00,
2013-08-29 23:01:00,73.4,71.3,31.01,West,270,0.0,0.0,93,0.00,,---,0.00,VWS V14.01,2013-08-30 03:01:00,
2013-08-29 23:06:00,73.4,71.3,31.01,West,270,3.1,3.1,93,0.00,,---,0.00,VWS V14.01,2013-08-30 03:06:00,
2013-08-29 23:11:00,73.4,71.3,31.01,West,270,0.0,0.0,93,0.00,,---,0.00,VWS V14.01,2013-08-30 03:11:00,
2013-08-29 23:16:00,73.2,71.4,31.01,West,269,0.0,0.0,94,0.00,,---,0.00,VWS V14.01,2013-08-30 03:16:00,
2013-08-29 23:21:00,73.0,71.2,31.01,West,268,0.0,0.0,94,0.00,,---,0.00,VWS V14.01,2013-08-30 03:21:00,
2013-08-29 23:26:00,72.9,71.3,31.01,West,269,0.0,0.0,95,0.00,,---,0.00,VWS V14.01,2013-08-30 03:26:00,
2013-08-29 23:31:00,72.5,71.3,31.01,West,269,0.0,0.0,96,0.00,,---,0.00,VWS V14.01,2013-08-30 03:31:00,
2013-08-29 23:36:00,72.1,70.9,31.01,West,268,2.2,2.2,96,0.00,,---,0.00,VWS V14.01,2013-08-30 03:36:00,
2013-08-29 23:41:00,71.8,70.9,31.01,West,268,0.0,2.7,97,0.00,,---,0.00,VWS V14.01,2013-08-30 03:41:00,
2013-08-29 23:46:00,71.6,71.0,31.01,West,269,0.0,0.0,98,0.00,,---,0.00,VWS V14.01,2013-08-30 03:46:00,
2013-08-29 23:51:00,71.4,70.8,31.01,West,268,0.0,0.0,98,0.00,,---,0.00,VWS V14.01,2013-08-30 03:51:00,
2013-08-29 23:56:00,71.2,70.7,31.01,West,268,0.0,0.0,98,0.00,,---,0.00,VWS V14.01,2013-08-30 03:56:00,